• Join FlightAware (Why Join?)
  • Login
  • US Flag 
05:16AM EDT


 

Airport Tracker/Info


-or-


 

Live Flight TrackerFlight Track Log ✈ EGF2841 ✈ 04-May-2013 ✈ KDFW - KSAF

Flight Track Log - Related Links

Times and Time Zones

All times are in EDT time to prevent confusion due to time zone crossing. See the EGF2841 flight status page for this flight to view local times or setup timezone preferences in your user account.

Time Position Orientation Groundspeed Altitude Reporting Facility
EDT Latitude Longitude Course Direction KTS MPH feet Rate Location/Type
10:35AM 32.9000 -97.0500 295° West 131 151 1,200  Level Dallas / Fort Worth TRACON
10:35AM 32.9167 -97.0500 360° North 171 197 2,200 3,120 Climbing Dallas / Fort Worth TRACON
10:36AM 32.9833 -97.0500 360° North 197 227 5,300 2,880 Climbing Dallas / Fort Worth TRACON
10:37AM 32.7570 -97.1264 220° Southwest  Level FlightAware Approximate
10:37AM 33.0000 -97.1167 287° West 251 289 8,000  Level Dallas / Fort Worth TRACON
10:38AM 32.7653 -97.2253 281° West  Level FlightAware Approximate
10:39AM 32.8046 -97.3186 298° West  Level FlightAware Approximate
10:40AM 32.8447 -97.4118 296° West  Level FlightAware Approximate
10:40AM 32.9858 -97.2944 265° West 267 307 12,500  Level Fort Worth Center
10:41AM 32.8826 -97.5063 295° West  Level FlightAware Approximate
10:41AM 32.9836 -97.3861 268° West 289 333 13,900  Level Fort Worth Center
10:42AM 32.9817 -97.5025 269° West 316 364 15,600 1,500 Climbing Fort Worth Center
10:43AM 32.9836 -97.6017 271° West 326 375 17,000 1,500 Climbing Fort Worth Center
10:44AM 32.9792 -97.7231 268° West 331 381 18,700 1,500 Climbing Fort Worth Center
10:45AM 32.9956 -97.8344 280° West 331 381 20,100 1,440 Climbing Fort Worth Center
10:46AM 33.0139 -97.9461 281° West 336 387 21,600 1,380 Climbing Fort Worth Center
10:47AM 33.0300 -98.0553 280° West 336 387 22,900 1,380 Climbing Fort Worth Center
10:48AM 33.0481 -98.1717 281° West 341 392 24,400 1,380 Climbing Fort Worth Center
10:49AM 33.0661 -98.2811 281° West 347 399 25,700 1,260 Climbing Fort Worth Center
10:50AM 33.0842 -98.3978 280° West 352 405 27,000 1,200 Climbing Fort Worth Center
10:51AM 33.1019 -98.5094 281° West 352 405 28,200 1,020 Climbing Fort Worth Center
10:52AM 33.1136 -98.6114 278° West 352 405 29,100 1,080 Climbing Fort Worth Center
10:53AM 33.1353 -98.7406 281° West 352 405 30,400 1,080 Climbing Fort Worth Center
10:54AM 33.1489 -98.8350 280° West 358 412 31,300 1,020 Climbing Fort Worth Center
10:55AM 33.1700 -98.9794 280° West 373 429 32,500 1,080 Climbing Fort Worth Center
10:56AM 33.1894 -99.1039 281° West 373 429 33,500 960 Climbing Fort Worth Center
10:57AM 33.2169 -99.2211 286° West 373 429 34,500 1,080 Climbing Fort Worth Center
10:58AM 33.2592 -99.3314 295° West 368 423 35,700 720 Climbing Fort Worth Center
10:59AM 33.3011 -99.4392 295° West 368 423 36,000 120 Climbing Fort Worth Center
11:00AM 33.3433 -99.5419 296° West 357 411 36,000  Level Fort Worth Center
11:01AM 33.3853 -99.6500 295° West 357 411 36,000  Level Fort Worth Center
11:02AM 33.4250 -99.7581 294° West 357 411 36,000  Level Fort Worth Center
11:03AM 33.4647 -99.8636 294° West 357 411 36,000  Level Fort Worth Center
11:04AM 33.5064 -99.9694 295° West 357 411 36,000  Level Fort Worth Center
11:05AM 33.5458 -100.0803 293° West 357 411 36,000  Level Fort Worth Center
11:06AM 33.5853 -100.1861 294° West 357 411 36,000  Level Fort Worth Center
11:07AM 33.6267 -100.2947 295° West 357 411 36,000  Level Fort Worth Center
11:08AM 33.6758 -100.4211 295° West 357 411 36,000  Level Fort Worth Center
11:09AM 33.7150 -100.5297 293° West 362 417 36,000  Level Fort Worth Center
11:10AM 33.7561 -100.6411 294° West 362 417 36,000  Level Fort Worth Center
11:11AM 33.7950 -100.7475 294° West 362 417 36,000  Level Fort Worth Center
11:12AM 33.8358 -100.8592 294° West 362 417 36,000  Level Fort Worth Center
11:13AM 33.8767 -100.9683 294° West 362 417 36,000  Level Fort Worth Center
11:14AM 33.9192 -101.0778 295° West 367 422 36,000  Level Fort Worth Center
11:15AM 33.9519 -101.1767 292° West 360 414 36,000  Level Fort Worth Center
11:16AM 33.9983 -101.2964 295° West 360 414 36,000  Level Fort Worth Center
11:17AM 34.0367 -101.3986 294° West 360 414 36,000  Level Fort Worth Center
11:18AM 34.0786 -101.5233 292° West 365 420 36,000  Level Fort Worth Center
11:19AM 34.1153 -101.6178 295° West 358 412 36,000  Level Fort Worth Center
11:20AM 34.1589 -101.7453 292° West 358 412 36,000  Level Fort Worth Center
11:21AM 34.1972 -101.8428 295° West 363 418 36,000  Level Fort Worth Center
11:23AM 34.2639 -102.0361 293° West 363 418 36,000  Level Albuquerque Center
11:24AM 34.3042 -102.1483 294° West 364 419 36,000  Level Albuquerque Center
11:25AM 34.3439 -102.2614 293° West 364 419 36,000  Level Albuquerque Center
11:26AM 34.3917 -102.3964 293° West 363 418 36,000  Level Albuquerque Center
11:27AM 34.4317 -102.5092 293° West 364 419 36,000  Level Albuquerque Center
11:28AM 34.4711 -102.6217 293° West 363 418 36,000  Level Albuquerque Center
11:29AM 34.5097 -102.7328 293° West 361 415 36,000  Level Albuquerque Center
11:30AM 34.5506 -102.8469 294° West 365 420 36,000  Level Albuquerque Center
11:31AM 34.5892 -102.9603 293° West 362 417 36,000  Level Albuquerque Center
11:32AM 34.6339 -103.0942 292° West 363 418 36,000  Level Albuquerque Center
11:33AM 34.6756 -103.2097 294° West 368 423 36,000  Level Albuquerque Center
11:34AM 34.7133 -103.3236 292° West 363 418 36,000  Level Albuquerque Center
11:35AM 34.7528 -103.4397 292° West 366 421 36,000  Level Albuquerque Center
11:36AM 34.7931 -103.5558 293° West 369 425 36,000  Level Albuquerque Center
11:37AM 34.8322 -103.6719 292° West 368 423 36,000  Level Albuquerque Center
11:38AM 34.8708 -103.7889 292° West 368 423 36,000  Level Albuquerque Center
11:39AM 34.9097 -103.9039 292° West 364 419 36,000  Level Albuquerque Center
11:40AM 34.9494 -104.0214 292° West 368 423 36,000  Level Albuquerque Center
11:41AM 34.9878 -104.1381 292° West 367 422 36,000  Level Albuquerque Center
11:42AM 35.0267 -104.2567 292° West 368 423 36,000 -540 Level Albuquerque Center
11:43AM 35.0731 -104.3953 292° West 370 426 35,000 -1,140 Descending Albuquerque Center
11:44AM 35.1103 -104.5003 293° West 373 429 33,700 -1,560 Descending Albuquerque Center
11:45AM 35.1519 -104.6350 291° West 374 430 31,900 -1,800 Descending Albuquerque Center
11:46AM 35.1925 -104.7561 292° West 378 435 30,100 -1,920 Descending Albuquerque Center
11:47AM 35.2322 -104.8808 291° West 386 444 28,000 -2,160 Descending Albuquerque Center
11:48AM 35.2739 -105.0122 291° West 402 463 25,700 -2,340 Descending Albuquerque Center
11:49AM 35.3167 -105.1431 292° West 408 470 23,200 -2,340 Descending Albuquerque Center
11:50AM 35.3578 -105.2694 292° West 401 461 20,900 -2,280 Descending Albuquerque Center
11:51AM 35.3903 -105.3947 288° West 386 444 18,600 -2,160 Descending Albuquerque Center
11:52AM 35.4078 -105.5183 280° West 372 428 16,500 -2,100 Descending Albuquerque Center
11:53AM 35.4283 -105.6408 282° West 366 421 14,300 -1,260 Descending Albuquerque Center
11:54AM 35.4478 -105.7783 280° West 356 410 14,000 -240 Descending Albuquerque Center
11:55AM 35.4711 -105.8794 286° West 325 374 13,900 -840 Descending Albuquerque Center
11:56AM 35.5078 -105.9686 297° West 300 345 12,300 -1,020 Descending Albuquerque Center
11:58AM 35.5628 -106.0086 329° Northwest 278 320 11,900 -660 Descending Albuquerque Center
11:59AM 35.6194 -105.9794 23° Northeast 237 273 11,000 -1,140 Descending Albuquerque Center
12:00PM 35.6683 -105.9564 21° North 206 237 9,600 -1,320 Descending Albuquerque Center
12:01PM 35.6986 -106.0031 309° West 193 222 8,400 -960 Descending Albuquerque Center
12:02PM 35.6728 -106.0431 232° Southwest 166 191 7,700 -840 Descending Albuquerque Center
12:03PM 35.6403 -106.0708 215° Southwest 151 174 6,700 -1,020 Descending Albuquerque Center